createdAt,value
2022-10-09T00:00:06.213Z,8.05
2022-10-09T00:02:32.804Z,8.23
2022-10-09T00:04:59.193Z,7.53
2022-10-09T00:07:25.629Z,7.90
2022-10-09T00:09:52.015Z,8.05
2022-10-09T00:12:18.338Z,8.07
2022-10-09T00:14:44.785Z,8.32
2022-10-09T00:17:11.189Z,7.75
2022-10-09T00:19:37.573Z,8.07
2022-10-09T00:22:04.212Z,7.53
2022-10-09T00:24:30.670Z,7.70
2022-10-09T00:26:57.148Z,7.90
2022-10-09T00:29:23.496Z,7.78
2022-10-09T00:31:50.416Z,7.93
2022-10-09T00:34:18.556Z,7.53
2022-10-09T00:36:46.406Z,7.90
2022-10-09T00:39:14.044Z,7.30
2022-10-09T00:41:41.193Z,7.55
2022-10-09T00:44:27.416Z,7.82
2022-10-09T00:46:53.881Z,7.65
2022-10-09T00:49:30.335Z,7.47
2022-10-09T00:51:58.633Z,7.18
2022-10-09T00:54:27.602Z,7.50
2022-10-09T00:56:54.754Z,7.00
2022-10-09T00:59:21.616Z,7.32
2022-10-09T01:01:48.044Z,7.40
2022-10-09T01:04:15.008Z,6.78
2022-10-09T01:07:00.005Z,6.57
2022-10-09T01:09:39.988Z,7.05
2022-10-09T01:12:24.579Z,6.47
2022-10-09T01:15:03.602Z,6.03
2022-10-09T01:17:56.358Z,5.65
2022-10-09T01:20:23.185Z,5.97
2022-10-09T01:23:13.116Z,6.50
2022-10-09T01:25:48.601Z,5.95
2022-10-09T01:28:16.075Z,6.10
2022-10-09T01:30:42.640Z,5.95
2022-10-09T01:33:10.316Z,6.13
2022-10-09T01:35:37.075Z,6.20
2022-10-09T01:38:04.403Z,6.53
2022-10-09T01:40:31.098Z,5.68
2022-10-09T01:42:58.277Z,6.68
2022-10-09T01:45:24.791Z,6.40
2022-10-09T01:47:51.240Z,7.18
2022-10-09T01:50:28.512Z,6.57
2022-10-09T01:53:01.837Z,6.40
2022-10-09T01:55:46.681Z,6.38
2022-10-09T01:58:17.956Z,6.35
2022-10-09T02:00:47.450Z,6.13
2022-10-09T02:03:15.205Z,6.55
2022-10-09T02:05:43.501Z,6.93
2022-10-09T02:08:12.528Z,6.25
2022-10-09T02:10:40.151Z,6.72
2022-10-09T02:13:06.599Z,6.57
2022-10-09T02:15:51.861Z,5.90
2022-10-09T02:18:21.435Z,4.70
2022-10-09T02:20:50.757Z,6.10
2022-10-09T02:23:18.167Z,6.00
2022-10-09T02:25:44.716Z,6.90
2022-10-09T02:28:11.212Z,6.47
2022-10-09T02:30:56.340Z,6.32
2022-10-09T02:33:32.884Z,6.23
2022-10-09T02:35:59.500Z,6.20
2022-10-09T02:38:25.887Z,6.78
2022-10-09T02:40:52.339Z,6.63
2022-10-09T02:43:18.652Z,6.40
2022-10-09T02:45:45.016Z,7.50
2022-10-09T02:48:11.399Z,7.20
2022-10-09T02:50:37.695Z,7.38
2022-10-09T02:53:04.058Z,6.88
2022-10-09T02:55:30.529Z,6.13
2022-10-09T02:57:56.900Z,7.03
2022-10-09T03:00:23.292Z,6.03
2022-10-09T03:02:49.909Z,6.57
2022-10-09T03:05:16.425Z,7.40
2022-10-09T03:07:50.262Z,6.30
2022-10-09T03:10:17.448Z,6.85
2022-10-09T03:12:43.760Z,6.10
2022-10-09T03:15:10.402Z,6.93
2022-10-09T03:17:36.944Z,6.93
2022-10-09T03:20:03.328Z,6.63
2022-10-09T03:22:29.612Z,6.93
2022-10-09T03:24:56.149Z,6.63
2022-10-09T03:27:22.514Z,6.43
2022-10-09T03:29:48.876Z,6.82
2022-10-09T03:32:15.305Z,6.85
2022-10-09T03:34:41.719Z,6.88
2022-10-09T03:37:08.085Z,6.38
2022-10-09T03:39:34.468Z,6.65
2022-10-09T03:42:00.831Z,6.22
2022-10-09T03:44:27.150Z,6.30
2022-10-09T03:46:53.633Z,5.53
2022-10-09T03:49:20.354Z,5.35
2022-10-09T03:51:46.644Z,5.82
2022-10-09T03:54:13.172Z,5.90
2022-10-09T03:56:39.486Z,5.65
2022-10-09T03:59:07.515Z,5.95
2022-10-09T04:01:33.862Z,6.20
2022-10-09T04:04:00.369Z,7.25
2022-10-09T04:06:26.696Z,6.32
2022-10-09T04:08:53.588Z,6.50
2022-10-09T04:11:20.115Z,5.75
2022-10-09T04:13:46.428Z,6.60
2022-10-09T04:16:12.902Z,6.07
2022-10-09T04:18:40.203Z,6.13
2022-10-09T04:21:06.612Z,7.47
2022-10-09T04:23:33.104Z,5.60
2022-10-09T04:26:00.003Z,6.15
2022-10-09T04:28:27.189Z,6.32
2022-10-09T04:30:53.719Z,5.72
2022-10-09T04:33:20.028Z,5.93
2022-10-09T04:35:46.994Z,6.03
2022-10-09T04:38:14.805Z,5.90
2022-10-09T04:40:41.451Z,5.70
2022-10-09T04:43:07.786Z,6.30
2022-10-09T04:45:34.226Z,5.70
2022-10-09T04:48:00.579Z,6.05
2022-10-09T04:50:26.992Z,5.55
2022-10-09T04:52:53.374Z,5.60
2022-10-09T04:55:19.702Z,6.07
2022-10-09T04:57:46.018Z,5.93
2022-10-09T05:00:12.835Z,5.55
2022-10-09T05:02:39.236Z,6.05
2022-10-09T05:05:05.729Z,6.88
2022-10-09T05:07:32.039Z,6.05
2022-10-09T05:09:58.400Z,6.18
2022-10-09T05:12:24.812Z,6.45
2022-10-09T05:14:51.122Z,6.38
2022-10-09T05:17:22.050Z,6.35
2022-10-09T05:19:49.489Z,6.20
2022-10-09T05:22:15.787Z,6.07
2022-10-09T05:24:42.328Z,6.22
2022-10-09T05:27:08.956Z,7.22
2022-10-09T05:29:35.270Z,6.20
2022-10-09T05:32:01.688Z,6.50
2022-10-09T05:34:28.074Z,6.30
2022-10-09T05:36:54.409Z,6.45
2022-10-09T05:39:20.717Z,6.85
2022-10-09T05:41:47.124Z,6.18
2022-10-09T05:44:13.429Z,6.40
2022-10-09T05:46:39.782Z,6.43
2022-10-09T05:49:06.478Z,6.18
2022-10-09T05:51:34.008Z,6.30
2022-10-09T05:54:03.248Z,6.00
2022-10-09T05:56:30.663Z,6.47
2022-10-09T05:59:07.743Z,6.45
2022-10-09T06:01:35.486Z,5.95
2022-10-09T06:04:02.359Z,6.05
2022-10-09T06:06:31.016Z,6.88
2022-10-09T06:08:57.949Z,6.47
2022-10-09T06:11:28.263Z,6.90
2022-10-09T06:13:55.748Z,7.10
2022-10-09T06:16:23.868Z,7.28
2022-10-09T06:18:50.490Z,7.43
2022-10-09T06:21:17.279Z,6.63
2022-10-09T06:23:44.013Z,7.10
2022-10-09T06:26:12.566Z,6.45
2022-10-09T06:28:38.971Z,6.82
2022-10-09T06:31:09.328Z,11.68
2022-10-09T06:33:36.798Z,11.25
2022-10-09T06:36:10.364Z,12.13
2022-10-09T06:38:37.205Z,11.63
2022-10-09T06:41:04.543Z,12.30
2022-10-09T06:43:31.027Z,11.45
2022-10-09T06:46:00.234Z,12.13
2022-10-09T06:48:28.182Z,11.57
2022-10-09T06:50:54.517Z,12.48
2022-10-09T06:53:20.854Z,13.00
2022-10-09T06:55:55.255Z,11.85
2022-10-09T06:58:21.676Z,10.90
2022-10-09T07:00:48.151Z,11.55
2022-10-09T07:03:15.252Z,12.60
2022-10-09T07:05:41.870Z,12.43
2022-10-09T07:08:08.205Z,12.30
2022-10-09T07:10:37.027Z,13.75
2022-10-09T07:13:03.547Z,12.95
2022-10-09T07:15:30.326Z,13.73
2022-10-09T07:17:56.682Z,14.13
2022-10-09T07:20:23.218Z,12.73
2022-10-09T07:22:49.720Z,13.02
2022-10-09T07:25:16.378Z,12.48
2022-10-09T07:27:42.730Z,12.05
2022-10-09T07:30:09.452Z,12.98
2022-10-09T07:32:35.743Z,15.00
2022-10-09T07:35:02.076Z,13.32
2022-10-09T07:37:28.468Z,13.23
2022-10-09T07:39:54.849Z,12.45
2022-10-09T07:42:21.211Z,10.63
2022-10-09T07:44:47.536Z,10.10
2022-10-09T07:47:13.899Z,8.40
2022-10-09T07:49:40.288Z,7.82
2022-10-09T07:52:06.649Z,14.35
2022-10-09T07:54:32.975Z,11.15
2022-10-09T07:56:59.361Z,10.63
2022-10-09T07:59:25.668Z,9.27
2022-10-09T08:01:52.034Z,6.57
2022-10-09T08:04:18.452Z,9.80
2022-10-09T08:06:44.879Z,8.77
2022-10-09T08:09:11.255Z,7.05
2022-10-09T08:11:40.548Z,6.75
2022-10-09T08:14:07.476Z,6.60
2022-10-09T08:16:33.784Z,8.55
2022-10-09T08:19:00.740Z,6.22
2022-10-09T08:21:28.486Z,5.85
2022-10-09T08:23:55.687Z,6.20
2022-10-09T08:26:22.958Z,6.13
2022-10-09T08:28:50.020Z,5.93
2022-10-09T08:31:17.087Z,6.00
2022-10-09T08:33:43.787Z,4.18
2022-10-09T08:36:11.571Z,5.05
2022-10-09T08:38:47.151Z,4.38
2022-10-09T08:41:14.597Z,4.15
2022-10-09T08:43:42.686Z,3.63
2022-10-09T08:46:31.377Z,3.53
2022-10-09T08:48:58.589Z,3.38
2022-10-09T08:51:29.531Z,2.65
2022-10-09T08:54:01.874Z,2.90
2022-10-09T08:56:29.433Z,2.60
2022-10-09T08:58:55.842Z,2.50
2022-10-09T09:01:26.256Z,3.28
2022-10-09T09:04:02.279Z,2.42
2022-10-09T09:06:31.789Z,2.30
2022-10-09T09:09:18.426Z,1.80
2022-10-09T09:11:47.617Z,2.03
2022-10-09T09:14:32.741Z,1.80
2022-10-09T09:17:06.407Z,2.03
2022-10-09T09:19:32.715Z,1.60
2022-10-09T09:21:59.176Z,1.85
2022-10-09T09:24:40.275Z,1.70
2022-10-09T09:27:14.129Z,1.63
2022-10-09T09:29:44.863Z,1.42
2022-10-09T09:32:16.030Z,1.23
2022-10-09T09:34:42.500Z,1.65
2022-10-09T09:37:12.206Z,1.50
2022-10-09T09:42:24.975Z,1.45
2022-10-09T09:44:56.340Z,1.83
2022-10-09T09:47:32.825Z,1.55
2022-10-09T09:50:00.845Z,1.70
2022-10-09T09:52:29.344Z,1.60
2022-10-09T09:54:57.006Z,1.67
2022-10-09T09:57:34.285Z,1.30
2022-10-09T10:00:08.012Z,1.50
2022-10-09T10:02:34.381Z,1.67
2022-10-09T10:05:01.749Z,1.92
2022-10-09T10:07:28.993Z,1.38
2022-10-09T10:10:25.287Z,1.30
2022-10-09T10:12:52.397Z,1.35
2022-10-09T10:15:21.023Z,1.25
2022-10-09T10:17:48.306Z,0.98
2022-10-09T10:20:15.762Z,1.40
2022-10-09T10:22:46.512Z,1.38
2022-10-09T10:25:16.272Z,1.27
2022-10-09T10:27:43.775Z,1.25
2022-10-09T10:30:12.055Z,1.23
2022-10-09T10:32:49.313Z,1.40
2022-10-09T10:35:17.735Z,1.13
2022-10-09T10:37:57.052Z,1.17
2022-10-09T10:40:32.353Z,1.20
2022-10-09T10:43:10.915Z,1.27
2022-10-09T10:45:41.020Z,1.25
2022-10-09T10:48:15.812Z,0.80
2022-10-09T10:50:46.799Z,1.10
2022-10-09T10:53:25.665Z,0.90
2022-10-09T10:56:06.043Z,1.00
2022-10-09T10:58:42.975Z,1.10
2022-10-09T11:01:24.665Z,1.13
2022-10-09T11:04:09.847Z,1.00
2022-10-09T11:07:02.529Z,0.90
2022-10-09T11:09:41.291Z,1.27
2022-10-09T11:12:19.496Z,1.17
2022-10-09T11:14:57.464Z,1.55
2022-10-09T11:17:29.566Z,1.15
2022-10-09T11:20:08.813Z,1.33
2022-10-09T11:22:35.121Z,1.48
2022-10-09T11:25:01.493Z,1.20
2022-10-09T11:27:34.064Z,1.38
2022-10-09T11:30:02.597Z,1.15
2022-10-09T11:35:27.693Z,1.20
2022-10-09T11:38:01.518Z,1.27
2022-10-09T11:40:36.565Z,1.15
2022-10-09T11:43:02.978Z,1.10
2022-10-09T11:45:47.165Z,1.38
2022-10-09T11:48:17.007Z,1.30
2022-10-09T11:50:55.426Z,1.00
2022-10-09T11:53:23.935Z,1.27
2022-10-09T11:56:01.232Z,1.00
2022-10-09T11:58:27.620Z,1.17
2022-10-09T12:00:55.629Z,1.15
2022-10-09T12:03:35.974Z,1.30
2022-10-09T12:06:12.703Z,1.20
2022-10-09T12:08:40.983Z,1.10
2022-10-09T12:11:09.716Z,1.20
2022-10-09T12:13:39.083Z,0.90
2022-10-09T12:16:10.699Z,1.20
2022-10-09T12:18:39.078Z,0.90
2022-10-09T12:21:07.508Z,1.20
2022-10-09T12:23:36.037Z,1.00
2022-10-09T12:26:03.916Z,1.23
2022-10-09T12:28:36.153Z,1.88
2022-10-09T12:31:03.932Z,1.02
2022-10-09T12:33:43.552Z,1.10
2022-10-09T12:36:21.897Z,0.90
2022-10-09T12:38:48.282Z,1.33
2022-10-09T12:41:21.765Z,1.02
2022-10-09T12:43:49.703Z,1.00
2022-10-09T12:46:25.550Z,1.10
2022-10-09T12:48:51.983Z,1.35
2022-10-09T12:51:24.547Z,1.25
2022-10-09T12:53:51.822Z,1.40
2022-10-09T12:56:32.184Z,1.05
2022-10-09T12:58:59.578Z,1.05
2022-10-09T13:01:26.437Z,1.20
2022-10-09T13:04:00.146Z,1.10
2022-10-09T13:06:28.361Z,1.00
2022-10-09T13:08:59.786Z,1.15
2022-10-09T13:11:34.554Z,1.38
2022-10-09T13:14:01.463Z,1.23
2022-10-09T13:16:38.606Z,1.23
2022-10-09T13:19:18.651Z,1.13
2022-10-09T13:21:45.189Z,1.10
2022-10-09T13:24:13.160Z,1.05
2022-10-09T13:26:40.794Z,1.00
2022-10-09T13:29:07.459Z,1.02
2022-10-09T13:31:37.102Z,1.08
2022-10-09T13:34:13.537Z,0.85
2022-10-09T13:36:40.467Z,0.90
2022-10-09T13:39:07.099Z,1.23
2022-10-09T13:41:33.716Z,1.48
2022-10-09T13:44:00.086Z,1.30
2022-10-09T13:46:26.507Z,0.88
2022-10-09T13:48:52.918Z,1.20
2022-10-09T13:51:19.227Z,0.93
2022-10-09T13:53:45.517Z,1.10
2022-10-09T13:56:11.909Z,1.10
2022-10-09T13:58:38.276Z,1.05
2022-10-09T14:01:04.792Z,1.00
2022-10-09T14:03:31.234Z,1.23
2022-10-09T14:06:03.021Z,1.10
2022-10-09T14:08:29.920Z,1.10
2022-10-09T14:10:56.344Z,0.90
2022-10-09T14:13:22.689Z,0.95
2022-10-09T14:15:49.092Z,1.15
2022-10-09T14:18:15.453Z,0.90
2022-10-09T14:20:41.773Z,0.85
2022-10-09T14:23:09.229Z,1.08
2022-10-09T14:25:35.661Z,0.85
2022-10-09T14:28:02.307Z,1.60
2022-10-09T14:30:28.784Z,0.85
2022-10-09T14:32:55.455Z,0.90
2022-10-09T14:35:21.946Z,1.58
2022-10-09T14:37:48.458Z,1.13
2022-10-09T14:40:15.321Z,1.00
2022-10-09T14:42:42.149Z,1.17
2022-10-09T14:45:09.454Z,0.90
2022-10-09T14:47:35.873Z,1.00
2022-10-09T14:50:02.288Z,1.00
2022-10-09T14:52:28.647Z,1.02
2022-10-09T14:54:54.953Z,0.88
2022-10-09T14:57:21.974Z,1.00
2022-10-09T14:59:48.342Z,1.00
2022-10-09T15:02:15.422Z,1.00
2022-10-09T15:04:41.842Z,0.90
2022-10-09T15:07:11.196Z,0.80
2022-10-09T15:09:37.601Z,1.42
2022-10-09T15:12:03.962Z,1.20
2022-10-09T15:14:30.347Z,0.90
2022-10-09T15:16:56.684Z,1.00
2022-10-09T15:19:23.257Z,0.90
2022-10-09T15:21:49.707Z,0.98
2022-10-09T15:24:16.045Z,1.20
2022-10-09T15:26:42.425Z,1.10
2022-10-09T15:29:08.920Z,1.10
2022-10-09T15:31:36.336Z,0.85
2022-10-09T15:34:03.437Z,0.98
2022-10-09T15:36:31.391Z,0.93
2022-10-09T15:38:57.780Z,3.40
2022-10-09T15:41:28.524Z,1.80
2022-10-09T15:43:56.442Z,1.35
2022-10-09T15:46:23.444Z,1.00
2022-10-09T15:48:49.868Z,1.20
2022-10-09T15:51:16.352Z,0.90
2022-10-09T15:53:43.720Z,1.02
2022-10-09T15:56:11.886Z,1.15
2022-10-09T15:58:38.478Z,1.40
2022-10-09T16:01:05.841Z,1.15
2022-10-09T16:03:35.304Z,1.63
2022-10-09T16:06:04.667Z,1.73
2022-10-09T16:08:31.413Z,1.88
2022-10-09T16:10:57.970Z,1.60
2022-10-09T16:13:25.432Z,0.98
2022-10-09T16:15:51.897Z,1.00
2022-10-09T16:18:22.608Z,1.10
2022-10-09T16:20:49.739Z,0.85
2022-10-09T16:23:17.655Z,1.08
2022-10-09T16:25:44.499Z,0.95
2022-10-09T16:28:12.514Z,1.52
2022-10-09T16:30:40.357Z,1.20
2022-10-09T16:33:11.618Z,1.38
2022-10-09T16:35:38.882Z,1.10
2022-10-09T16:38:05.227Z,1.17
2022-10-09T16:40:57.495Z,0.90
2022-10-09T16:43:19.696Z,1.30
2022-10-09T16:45:46.195Z,1.10
2022-10-09T16:48:12.507Z,1.55
2022-10-09T16:50:40.814Z,1.23
2022-10-09T16:53:10.150Z,1.13
2022-10-09T16:55:36.620Z,1.23
2022-10-09T16:58:03.053Z,1.55
2022-10-09T17:00:29.534Z,1.08
2022-10-09T17:02:56.636Z,1.52
2022-10-09T17:05:25.469Z,1.35
2022-10-09T17:07:52.271Z,1.90
2022-10-09T17:10:18.770Z,1.42
2022-10-09T17:12:45.133Z,1.70
2022-10-09T17:15:12.696Z,1.60
2022-10-09T17:17:39.020Z,1.70
2022-10-09T17:20:08.041Z,1.92
2022-10-09T17:22:34.366Z,1.80
2022-10-09T17:25:00.707Z,1.63
2022-10-09T17:27:27.034Z,1.70
2022-10-09T17:29:53.327Z,1.70
2022-10-09T17:32:19.886Z,1.80
2022-10-09T17:34:46.297Z,2.05
2022-10-09T17:37:13.183Z,1.85
2022-10-09T17:39:39.667Z,1.98
2022-10-09T17:42:06.138Z,1.73
2022-10-09T17:44:32.570Z,1.77
2022-10-09T17:47:00.835Z,1.75
2022-10-09T17:49:27.238Z,1.80
2022-10-09T17:51:54.520Z,1.58
2022-10-09T17:54:20.884Z,1.70
2022-10-09T17:56:47.329Z,1.85
2022-10-09T17:59:15.730Z,2.13
2022-10-09T18:01:42.668Z,1.92
2022-10-09T18:04:10.846Z,2.13
2022-10-09T18:06:37.221Z,1.85
2022-10-09T18:09:04.132Z,1.67
2022-10-09T18:11:30.562Z,2.10
2022-10-09T18:13:57.046Z,2.00
2022-10-09T18:16:32.697Z,1.85
2022-10-09T18:19:15.155Z,1.85
2022-10-09T18:21:43.465Z,1.98
2022-10-09T18:24:12.990Z,1.85
2022-10-09T18:26:39.780Z,2.00
2022-10-09T18:29:08.370Z,1.88
2022-10-09T18:31:34.793Z,1.75
2022-10-09T18:34:01.470Z,1.80
2022-10-09T18:36:31.700Z,1.80
2022-10-09T18:39:05.398Z,2.00
2022-10-09T18:41:31.909Z,6.00
2022-10-09T18:43:59.981Z,19.85
2022-10-09T18:46:27.649Z,12.60
2022-10-09T18:48:54.591Z,10.88
2022-10-09T18:51:22.299Z,10.45
2022-10-09T18:53:53.316Z,6.25
2022-10-09T18:56:21.617Z,3.55
2022-10-09T18:58:49.492Z,2.58
2022-10-09T19:01:16.094Z,2.45
2022-10-09T19:03:46.002Z,3.20
2022-10-09T19:06:15.571Z,2.60
2022-10-09T19:08:41.926Z,2.75
2022-10-09T19:11:09.098Z,2.97
2022-10-09T19:13:35.488Z,2.72
2022-10-09T19:16:05.693Z,3.38
2022-10-09T19:18:32.844Z,2.97
2022-10-09T19:21:00.397Z,2.72
2022-10-09T19:23:26.852Z,3.30
2022-10-09T19:25:55.214Z,2.05
2022-10-09T19:28:22.134Z,2.42
2022-10-09T19:30:48.893Z,2.47
2022-10-09T19:33:15.271Z,2.90
2022-10-09T19:35:46.050Z,2.50
2022-10-09T19:38:12.838Z,2.53
2022-10-09T19:40:39.166Z,3.03
2022-10-09T19:43:05.534Z,3.75
2022-10-09T19:45:32.232Z,4.00
2022-10-09T19:47:58.741Z,3.95
2022-10-09T19:50:25.461Z,3.88
2022-10-09T19:52:51.802Z,3.17
2022-10-09T19:55:18.939Z,4.05
2022-10-09T19:57:45.406Z,3.45
2022-10-09T20:00:12.009Z,3.85
2022-10-09T20:02:38.361Z,3.95
2022-10-09T20:05:05.019Z,3.20
2022-10-09T20:07:31.459Z,3.63
2022-10-09T20:09:58.152Z,3.78
2022-10-09T20:12:24.617Z,3.63
2022-10-09T20:14:51.165Z,3.67
2022-10-09T20:17:18.002Z,3.75
2022-10-09T20:19:45.873Z,3.55
2022-10-09T20:22:12.317Z,3.95
2022-10-09T20:24:38.684Z,3.70
2022-10-09T20:27:05.278Z,3.95
2022-10-09T20:29:31.611Z,3.85
2022-10-09T20:31:58.031Z,4.22
2022-10-09T20:34:27.626Z,3.95
2022-10-09T20:36:53.994Z,3.65
2022-10-09T20:39:21.399Z,3.75
2022-10-09T20:41:48.185Z,3.80
2022-10-09T20:44:14.581Z,3.45
2022-10-09T20:46:41.317Z,3.88
2022-10-09T20:49:10.650Z,3.35
2022-10-09T20:51:37.878Z,3.33
2022-10-09T20:54:05.484Z,3.40
2022-10-09T20:56:32.353Z,2.92
2022-10-09T20:58:59.552Z,3.35
2022-10-09T21:01:27.881Z,3.15
2022-10-09T21:03:57.516Z,2.65
2022-10-09T21:06:23.948Z,3.17
2022-10-09T21:08:50.736Z,2.75
2022-10-09T21:11:17.731Z,2.50
2022-10-09T21:13:44.479Z,2.60
2022-10-09T21:16:11.777Z,2.70
2022-10-09T21:18:38.198Z,3.03
2022-10-09T21:21:05.565Z,2.13
2022-10-09T21:23:32.118Z,2.20
2022-10-09T21:25:58.590Z,2.47
2022-10-09T21:28:25.083Z,2.40
2022-10-09T21:30:52.118Z,2.05
2022-10-09T21:33:18.806Z,2.35
2022-10-09T21:35:46.675Z,2.40
2022-10-09T21:38:14.298Z,2.45
2022-10-09T21:40:41.291Z,2.80
2022-10-09T21:43:08.192Z,2.17
2022-10-09T21:45:34.711Z,1.95
2022-10-09T21:48:01.100Z,2.40
2022-10-09T21:50:27.719Z,1.98
2022-10-09T21:52:54.040Z,2.38
2022-10-09T21:55:20.498Z,2.10
2022-10-09T21:57:47.261Z,2.50
2022-10-09T22:00:13.866Z,2.47
2022-10-09T22:02:40.239Z,2.00
2022-10-09T22:05:06.738Z,1.80
2022-10-09T22:07:33.121Z,2.05
2022-10-09T22:09:59.672Z,2.00
2022-10-09T22:12:26.045Z,1.98
2022-10-09T22:14:53.543Z,1.75
2022-10-09T22:17:19.979Z,1.88
2022-10-09T22:19:46.427Z,2.05
2022-10-09T22:22:12.748Z,2.30
2022-10-09T22:24:39.272Z,2.05
2022-10-09T22:27:05.849Z,2.15
2022-10-09T22:29:32.198Z,1.80
2022-10-09T22:31:58.654Z,2.13
2022-10-09T22:34:25.135Z,2.15
2022-10-09T22:36:51.608Z,2.10
2022-10-09T22:39:19.160Z,2.13
2022-10-09T22:41:45.516Z,2.08
2022-10-09T22:44:12.197Z,2.13
2022-10-09T22:46:39.847Z,2.22
2022-10-09T22:49:07.383Z,1.70
2022-10-09T22:51:34.061Z,1.75
2022-10-09T22:54:00.854Z,1.75
2022-10-09T22:56:29.197Z,1.92
2022-10-09T22:58:57.756Z,2.05
2022-10-09T23:01:25.261Z,2.17
2022-10-09T23:03:52.613Z,1.88
2022-10-09T23:06:19.616Z,2.03
2022-10-09T23:08:47.014Z,2.00
2022-10-09T23:11:14.491Z,1.88
2022-10-09T23:13:41.273Z,1.98
2022-10-09T23:16:08.665Z,2.17
2022-10-09T23:18:35.438Z,2.15
2022-10-09T23:21:06.123Z,1.95
2022-10-09T23:23:34.036Z,2.28
2022-10-09T23:26:04.423Z,1.98
2022-10-09T23:28:30.872Z,1.88
2022-10-09T23:31:00.833Z,2.10
2022-10-09T23:33:27.131Z,1.83
2022-10-09T23:35:53.507Z,1.63
2022-10-09T23:38:19.817Z,1.88
2022-10-09T23:40:56.252Z,1.90
2022-10-09T23:43:23.431Z,1.88
2022-10-09T23:45:50.444Z,1.90
2022-10-09T23:48:16.905Z,1.80
2022-10-09T23:50:43.198Z,2.35
2022-10-09T23:53:09.520Z,2.22
2022-10-09T23:55:35.853Z,2.30
2022-10-09T23:58:02.236Z,2.13
